createdAt,value
2023-05-09T00:01:13.370Z,14.06
2023-05-09T00:16:20.873Z,13.50
2023-05-09T00:31:26.527Z,12.88
2023-05-09T00:46:32.392Z,12.63
2023-05-09T01:01:38.137Z,12.44
2023-05-09T01:16:54.357Z,12.44
2023-05-09T01:32:01.696Z,13.13
2023-05-09T01:47:09.196Z,13.56
2023-05-09T02:02:15.319Z,13.00
2023-05-09T02:17:21.927Z,13.06
2023-05-09T02:32:30.629Z,12.94
2023-05-09T02:47:36.434Z,13.00
2023-05-09T03:02:42.219Z,13.06
2023-05-09T03:17:48.019Z,13.06
2023-05-09T03:32:54.017Z,13.06
2023-05-09T03:47:59.804Z,13.44
2023-05-09T04:03:06.248Z,13.56
2023-05-09T04:18:12.261Z,13.69
2023-05-09T04:33:17.732Z,13.81
2023-05-09T04:48:23.260Z,13.69
2023-05-09T05:03:28.900Z,13.75
2023-05-09T05:18:35.219Z,14.13
2023-05-09T05:33:40.779Z,14.38
2023-05-09T05:48:46.295Z,15.19
2023-05-09T06:03:55.048Z,15.44
2023-05-09T06:19:00.757Z,15.44
2023-05-09T06:34:06.536Z,16.75
2023-05-09T06:49:14.120Z,17.38
2023-05-09T07:04:19.684Z,18.50
2023-05-09T07:19:25.354Z,19.25
2023-05-09T07:34:31.059Z,20.19
2023-05-09T07:49:36.949Z,20.63
2023-05-09T08:04:42.618Z,21.94
2023-05-09T08:19:48.166Z,22.63
2023-05-09T08:34:53.636Z,23.75
2023-05-09T08:49:59.261Z,23.63
2023-05-09T09:05:05.852Z,24.44
2023-05-09T09:20:15.835Z,24.50
2023-05-09T09:35:22.096Z,24.50
2023-05-09T09:50:27.648Z,24.88
2023-05-09T10:05:34.712Z,24.75
2023-05-09T10:20:41.449Z,24.38
2023-05-09T10:35:48.596Z,24.25
2023-05-09T10:50:54.900Z,23.94
2023-05-09T11:06:00.915Z,24.00
2023-05-09T11:21:11.094Z,25.25
2023-05-09T11:36:25.914Z,24.50
2023-05-09T11:51:31.451Z,24.56
2023-05-09T12:06:37.878Z,24.88
2023-05-09T12:21:43.924Z,23.13
2023-05-09T12:36:51.172Z,23.19
2023-05-09T12:51:58.685Z,22.38
2023-05-09T13:07:11.681Z,22.19
2023-05-09T13:22:18.023Z,21.63
2023-05-09T13:37:23.590Z,21.00
2023-05-09T13:52:29.185Z,19.25
2023-05-09T14:07:34.833Z,18.31
2023-05-09T14:22:40.478Z,18.69
2023-05-09T14:37:46.157Z,18.38
2023-05-09T14:52:53.077Z,18.00
2023-05-09T15:07:58.761Z,17.56
2023-05-09T15:23:07.055Z,17.81
2023-05-09T15:38:13.876Z,17.75
2023-05-09T15:53:19.381Z,17.69
2023-05-09T16:08:25.022Z,17.69
2023-05-09T16:23:30.638Z,17.38
2023-05-09T16:38:36.319Z,17.44
2023-05-09T16:53:41.890Z,17.13
2023-05-09T17:08:47.666Z,16.81
2023-05-09T17:23:54.509Z,16.38
2023-05-09T17:39:00.051Z,16.13
2023-05-09T17:54:05.861Z,15.88
2023-05-09T18:09:11.505Z,15.81
2023-05-09T18:24:17.255Z,15.44
2023-05-09T18:39:23.765Z,15.25
2023-05-09T18:54:29.534Z,15.06
2023-05-09T19:09:35.071Z,15.00
2023-05-09T19:24:41.295Z,14.88
2023-05-09T19:39:46.955Z,14.75
2023-05-09T19:54:52.732Z,14.81
2023-05-09T20:09:58.865Z,14.69
2023-05-09T20:25:04.487Z,14.75
2023-05-09T20:40:11.577Z,14.75
2023-05-09T20:55:17.625Z,14.63
2023-05-09T21:10:23.891Z,14.44
2023-05-09T21:25:29.586Z,14.38
2023-05-09T21:40:35.380Z,14.38
2023-05-09T21:55:41.240Z,14.25
2023-05-09T22:10:47.222Z,14.13
2023-05-09T22:25:52.642Z,14.06
2023-05-09T22:40:58.271Z,13.88
2023-05-09T22:56:04.331Z,13.81
2023-05-09T23:11:09.855Z,13.56
2023-05-09T23:26:15.455Z,13.44
2023-05-09T23:41:22.217Z,13.50
2023-05-09T23:56:27.920Z,13.44
